sensor_id;sensor_type;location;lat;lon;timestamp;P1;durP1;ratioP1;P2;durP2;ratioP2
53207;SDS011;39093;52.788;6.940;2023-06-04T00:01:01;5.72;;;1.67;;
53207;SDS011;39093;52.788;6.940;2023-06-04T00:03:28;1.85;;;1.50;;
53207;SDS011;39093;52.788;6.940;2023-06-04T00:05:56;3.05;;;1.70;;
53207;SDS011;39093;52.788;6.940;2023-06-04T00:08:23;4.68;;;1.73;;
53207;SDS011;39093;52.788;6.940;2023-06-04T00:10:50;3.30;;;1.77;;
53207;SDS011;39093;52.788;6.940;2023-06-04T00:13:17;3.60;;;1.95;;
53207;SDS011;39093;52.788;6.940;2023-06-04T00:15:44;4.03;;;1.77;;
53207;SDS011;39093;52.788;6.940;2023-06-04T00:18:11;3.55;;;1.88;;
53207;SDS011;39093;52.788;6.940;2023-06-04T00:20:39;2.10;;;1.75;;
53207;SDS011;39093;52.788;6.940;2023-06-04T00:23:06;6.93;;;2.47;;
53207;SDS011;39093;52.788;6.940;2023-06-04T00:25:33;7.05;;;2.10;;
53207;SDS011;39093;52.788;6.940;2023-06-04T00:28:00;6.55;;;2.30;;
53207;SDS011;39093;52.788;6.940;2023-06-04T00:30:27;3.60;;;1.80;;
53207;SDS011;39093;52.788;6.940;2023-06-04T00:32:54;3.30;;;1.75;;
53207;SDS011;39093;52.788;6.940;2023-06-04T00:35:21;4.50;;;2.35;;
53207;SDS011;39093;52.788;6.940;2023-06-04T00:37:48;4.93;;;2.42;;
53207;SDS011;39093;52.788;6.940;2023-06-04T00:40:15;6.10;;;2.00;;
53207;SDS011;39093;52.788;6.940;2023-06-04T00:42:43;4.47;;;2.10;;
53207;SDS011;39093;52.788;6.940;2023-06-04T00:45:11;9.50;;;2.38;;
53207;SDS011;39093;52.788;6.940;2023-06-04T00:47:42;3.83;;;1.83;;
53207;SDS011;39093;52.788;6.940;2023-06-04T00:50:09;10.07;;;2.17;;
53207;SDS011;39093;52.788;6.940;2023-06-04T00:52:36;4.07;;;1.98;;
53207;SDS011;39093;52.788;6.940;2023-06-04T00:55:03;3.15;;;1.83;;
53207;SDS011;39093;52.788;6.940;2023-06-04T00:57:31;3.30;;;2.08;;
53207;SDS011;39093;52.788;6.940;2023-06-04T00:59:58;6.47;;;2.47;;
53207;SDS011;39093;52.788;6.940;2023-06-04T01:02:24;10.48;;;2.50;;
53207;SDS011;39093;52.788;6.940;2023-06-04T01:08:00;3.92;;;2.38;;
53207;SDS011;39093;52.788;6.940;2023-06-04T01:10:27;7.30;;;2.78;;
53207;SDS011;39093;52.788;6.940;2023-06-04T01:12:54;8.35;;;2.33;;
53207;SDS011;39093;52.788;6.940;2023-06-04T01:15:21;4.07;;;1.83;;
53207;SDS011;39093;52.788;6.940;2023-06-04T01:17:49;5.85;;;2.28;;
53207;SDS011;39093;52.788;6.940;2023-06-04T01:25:50;7.57;;;2.90;;
53207;SDS011;39093;52.788;6.940;2023-06-04T01:28:18;11.07;;;3.08;;
53207;SDS011;39093;52.788;6.940;2023-06-04T01:30:47;9.32;;;3.00;;
53207;SDS011;39093;52.788;6.940;2023-06-04T01:33:16;7.57;;;2.50;;
53207;SDS011;39093;52.788;6.940;2023-06-04T01:35:44;7.55;;;2.58;;
53207;SDS011;39093;52.788;6.940;2023-06-04T01:38:11;8.20;;;2.60;;
53207;SDS011;39093;52.788;6.940;2023-06-04T01:40:38;5.68;;;2.67;;
53207;SDS011;39093;52.788;6.940;2023-06-04T01:43:05;10.60;;;2.90;;
53207;SDS011;39093;52.788;6.940;2023-06-04T01:45:32;6.72;;;2.88;;
53207;SDS011;39093;52.788;6.940;2023-06-04T01:48:00;8.00;;;3.00;;
53207;SDS011;39093;52.788;6.940;2023-06-04T01:50:29;8.43;;;3.10;;
53207;SDS011;39093;52.788;6.940;2023-06-04T01:52:56;9.18;;;2.70;;
53207;SDS011;39093;52.788;6.940;2023-06-04T01:55:24;10.05;;;2.88;;
53207;SDS011;39093;52.788;6.940;2023-06-04T01:57:51;8.15;;;3.22;;
53207;SDS011;39093;52.788;6.940;2023-06-04T02:00:18;10.98;;;3.75;;
53207;SDS011;39093;52.788;6.940;2023-06-04T02:02:46;6.57;;;3.03;;
53207;SDS011;39093;52.788;6.940;2023-06-04T02:05:16;5.63;;;3.22;;
53207;SDS011;39093;52.788;6.940;2023-06-04T02:07:43;11.23;;;4.05;;
53207;SDS011;39093;52.788;6.940;2023-06-04T02:10:12;7.55;;;3.22;;
53207;SDS011;39093;52.788;6.940;2023-06-04T02:13:00;13.27;;;3.88;;
53207;SDS011;39093;52.788;6.940;2023-06-04T02:15:31;6.88;;;3.60;;
53207;SDS011;39093;52.788;6.940;2023-06-04T02:18:10;8.02;;;3.45;;
53207;SDS011;39093;52.788;6.940;2023-06-04T02:20:44;7.28;;;2.78;;
53207;SDS011;39093;52.788;6.940;2023-06-04T02:23:12;9.30;;;3.45;;
53207;SDS011;39093;52.788;6.940;2023-06-04T02:25:39;7.22;;;3.50;;
53207;SDS011;39093;52.788;6.940;2023-06-04T02:28:07;6.22;;;2.83;;
53207;SDS011;39093;52.788;6.940;2023-06-04T02:30:34;7.70;;;3.38;;
53207;SDS011;39093;52.788;6.940;2023-06-04T02:33:01;9.60;;;2.83;;
53207;SDS011;39093;52.788;6.940;2023-06-04T02:35:30;9.90;;;3.33;;
53207;SDS011;39093;52.788;6.940;2023-06-04T02:37:57;7.55;;;3.22;;
53207;SDS011;39093;52.788;6.940;2023-06-04T02:40:25;11.65;;;3.55;;
53207;SDS011;39093;52.788;6.940;2023-06-04T02:42:52;8.20;;;3.33;;
53207;SDS011;39093;52.788;6.940;2023-06-04T02:45:20;8.25;;;3.45;;
53207;SDS011;39093;52.788;6.940;2023-06-04T02:47:48;7.07;;;2.88;;
53207;SDS011;39093;52.788;6.940;2023-06-04T02:50:15;11.15;;;3.45;;
53207;SDS011;39093;52.788;6.940;2023-06-04T02:52:42;10.07;;;3.70;;
53207;SDS011;39093;52.788;6.940;2023-06-04T02:55:10;11.48;;;4.07;;
53207;SDS011;39093;52.788;6.940;2023-06-04T02:57:39;5.30;;;2.90;;
53207;SDS011;39093;52.788;6.940;2023-06-04T03:00:11;12.48;;;4.13;;
53207;SDS011;39093;52.788;6.940;2023-06-04T03:02:46;6.40;;;3.20;;
53207;SDS011;39093;52.788;6.940;2023-06-04T03:05:14;6.88;;;3.78;;
53207;SDS011;39093;52.788;6.940;2023-06-04T03:07:45;4.85;;;3.22;;
53207;SDS011;39093;52.788;6.940;2023-06-04T03:10:13;7.05;;;3.50;;
53207;SDS011;39093;52.788;6.940;2023-06-04T03:12:41;8.48;;;3.28;;
53207;SDS011;39093;52.788;6.940;2023-06-04T03:15:08;7.43;;;3.28;;
53207;SDS011;39093;52.788;6.940;2023-06-04T03:17:36;5.45;;;2.90;;
53207;SDS011;39093;52.788;6.940;2023-06-04T03:20:04;6.07;;;3.88;;
53207;SDS011;39093;52.788;6.940;2023-06-04T03:22:32;7.43;;;3.67;;
53207;SDS011;39093;52.788;6.940;2023-06-04T03:25:00;9.23;;;4.18;;
53207;SDS011;39093;52.788;6.940;2023-06-04T03:27:27;6.85;;;3.47;;
53207;SDS011;39093;52.788;6.940;2023-06-04T03:29:56;13.20;;;3.83;;
53207;SDS011;39093;52.788;6.940;2023-06-04T03:32:23;15.52;;;3.67;;
53207;SDS011;39093;52.788;6.940;2023-06-04T03:34:51;13.85;;;3.92;;
53207;SDS011;39093;52.788;6.940;2023-06-04T03:37:18;9.82;;;4.22;;
53207;SDS011;39093;52.788;6.940;2023-06-04T03:39:45;8.18;;;3.83;;
53207;SDS011;39093;52.788;6.940;2023-06-04T03:42:12;14.25;;;3.60;;
53207;SDS011;39093;52.788;6.940;2023-06-04T03:44:38;7.00;;;3.33;;
53207;SDS011;39093;52.788;6.940;2023-06-04T03:47:05;9.23;;;3.50;;
53207;SDS011;39093;52.788;6.940;2023-06-04T03:49:33;9.98;;;3.10;;
53207;SDS011;39093;52.788;6.940;2023-06-04T03:51:59;11.93;;;3.45;;
53207;SDS011;39093;52.788;6.940;2023-06-04T03:54:26;8.00;;;3.45;;
53207;SDS011;39093;52.788;6.940;2023-06-04T03:56:53;8.85;;;3.70;;
53207;SDS011;39093;52.788;6.940;2023-06-04T03:59:20;7.93;;;3.72;;
53207;SDS011;39093;52.788;6.940;2023-06-04T04:01:47;8.90;;;3.70;;
53207;SDS011;39093;52.788;6.940;2023-06-04T04:04:14;14.18;;;3.63;;
53207;SDS011;39093;52.788;6.940;2023-06-04T04:06:41;13.63;;;3.15;;
53207;SDS011;39093;52.788;6.940;2023-06-04T04:09:08;10.32;;;3.72;;
53207;SDS011;39093;52.788;6.940;2023-06-04T04:11:38;6.28;;;3.50;;
53207;SDS011;39093;52.788;6.940;2023-06-04T04:14:05;10.30;;;3.53;;
53207;SDS011;39093;52.788;6.940;2023-06-04T04:16:32;9.82;;;3.92;;
53207;SDS011;39093;52.788;6.940;2023-06-04T04:18:59;10.85;;;4.00;;
53207;SDS011;39093;52.788;6.940;2023-06-04T04:21:26;11.90;;;3.95;;
53207;SDS011;39093;52.788;6.940;2023-06-04T04:23:53;13.85;;;4.60;;
53207;SDS011;39093;52.788;6.940;2023-06-04T04:26:21;11.05;;;4.25;;
53207;SDS011;39093;52.788;6.940;2023-06-04T04:28:47;8.77;;;4.20;;
53207;SDS011;39093;52.788;6.940;2023-06-04T04:31:14;12.98;;;4.18;;
53207;SDS011;39093;52.788;6.940;2023-06-04T04:33:42;10.10;;;4.32;;
53207;SDS011;39093;52.788;6.940;2023-06-04T04:36:09;9.70;;;3.95;;
53207;SDS011;39093;52.788;6.940;2023-06-04T04:38:39;6.28;;;3.63;;
53207;SDS011;39093;52.788;6.940;2023-06-04T04:41:06;10.70;;;3.90;;
53207;SDS011;39093;52.788;6.940;2023-06-04T04:43:35;10.25;;;3.25;;
53207;SDS011;39093;52.788;6.940;2023-06-04T04:46:04;12.82;;;4.15;;
53207;SDS011;39093;52.788;6.940;2023-06-04T04:48:31;9.98;;;4.57;;
53207;SDS011;39093;52.788;6.940;2023-06-04T04:50:59;9.15;;;4.25;;
53207;SDS011;39093;52.788;6.940;2023-06-04T04:53:26;11.07;;;4.28;;
53207;SDS011;39093;52.788;6.940;2023-06-04T04:55:53;13.20;;;4.32;;
53207;SDS011;39093;52.788;6.940;2023-06-04T04:58:21;11.93;;;4.90;;
53207;SDS011;39093;52.788;6.940;2023-06-04T05:00:48;9.52;;;4.00;;
53207;SDS011;39093;52.788;6.940;2023-06-04T05:03:15;11.77;;;4.82;;
53207;SDS011;39093;52.788;6.940;2023-06-04T05:05:42;11.30;;;4.57;;
53207;SDS011;39093;52.788;6.940;2023-06-04T05:08:11;12.98;;;4.90;;
53207;SDS011;39093;52.788;6.940;2023-06-04T05:10:38;9.80;;;5.38;;
53207;SDS011;39093;52.788;6.940;2023-06-04T05:13:05;11.50;;;4.72;;
53207;SDS011;39093;52.788;6.940;2023-06-04T05:15:34;9.93;;;4.72;;
53207;SDS011;39093;52.788;6.940;2023-06-04T05:18:01;14.70;;;5.05;;
53207;SDS011;39093;52.788;6.940;2023-06-04T05:20:30;13.75;;;4.93;;
53207;SDS011;39093;52.788;6.940;2023-06-04T05:22:57;12.10;;;5.18;;
53207;SDS011;39093;52.788;6.940;2023-06-04T05:25:24;12.07;;;4.78;;
53207;SDS011;39093;52.788;6.940;2023-06-04T05:27:53;11.13;;;4.88;;
53207;SDS011;39093;52.788;6.940;2023-06-04T05:30:20;17.38;;;5.70;;
53207;SDS011;39093;52.788;6.940;2023-06-04T05:32:48;9.32;;;4.88;;
53207;SDS011;39093;52.788;6.940;2023-06-04T05:35:17;11.50;;;5.78;;
53207;SDS011;39093;52.788;6.940;2023-06-04T05:37:44;12.63;;;5.97;;
53207;SDS011;39093;52.788;6.940;2023-06-04T05:40:12;9.35;;;5.03;;
53207;SDS011;39093;52.788;6.940;2023-06-04T05:42:40;12.35;;;5.15;;
53207;SDS011;39093;52.788;6.940;2023-06-04T05:45:08;14.57;;;6.05;;
53207;SDS011;39093;52.788;6.940;2023-06-04T05:47:35;11.27;;;5.15;;
53207;SDS011;39093;52.788;6.940;2023-06-04T05:50:03;11.80;;;4.80;;
53207;SDS011;39093;52.788;6.940;2023-06-04T05:52:32;10.77;;;4.65;;
53207;SDS011;39093;52.788;6.940;2023-06-04T05:55:00;10.52;;;5.13;;
53207;SDS011;39093;52.788;6.940;2023-06-04T05:57:27;11.43;;;5.47;;
53207;SDS011;39093;52.788;6.940;2023-06-04T05:59:54;7.00;;;4.60;;
53207;SDS011;39093;52.788;6.940;2023-06-04T06:02:21;10.70;;;4.93;;
53207;SDS011;39093;52.788;6.940;2023-06-04T06:04:48;8.23;;;4.63;;
53207;SDS011;39093;52.788;6.940;2023-06-04T06:07:15;10.32;;;5.32;;
53207;SDS011;39093;52.788;6.940;2023-06-04T06:09:42;10.65;;;5.07;;
53207;SDS011;39093;52.788;6.940;2023-06-04T06:12:09;8.98;;;4.70;;
53207;SDS011;39093;52.788;6.940;2023-06-04T06:14:36;13.20;;;5.43;;
53207;SDS011;39093;52.788;6.940;2023-06-04T06:17:03;9.07;;;5.03;;
53207;SDS011;39093;52.788;6.940;2023-06-04T06:19:30;7.65;;;4.00;;
53207;SDS011;39093;52.788;6.940;2023-06-04T06:21:57;8.10;;;4.07;;
53207;SDS011;39093;52.788;6.940;2023-06-04T06:24:25;10.27;;;4.28;;
53207;SDS011;39093;52.788;6.940;2023-06-04T06:26:52;6.28;;;3.50;;
53207;SDS011;39093;52.788;6.940;2023-06-04T06:29:19;10.90;;;3.13;;
53207;SDS011;39093;52.788;6.940;2023-06-04T06:31:46;8.48;;;3.17;;
53207;SDS011;39093;52.788;6.940;2023-06-04T06:34:13;7.20;;;3.10;;
53207;SDS011;39093;52.788;6.940;2023-06-04T06:36:40;7.25;;;2.80;;
53207;SDS011;39093;52.788;6.940;2023-06-04T06:39:08;8.52;;;2.72;;
53207;SDS011;39093;52.788;6.940;2023-06-04T06:41:35;8.52;;;3.25;;
53207;SDS011;39093;52.788;6.940;2023-06-04T06:44:05;5.75;;;3.05;;
53207;SDS011;39093;52.788;6.940;2023-06-04T06:46:32;11.98;;;3.10;;
53207;SDS011;39093;52.788;6.940;2023-06-04T06:48:59;7.72;;;2.63;;
53207;SDS011;39093;52.788;6.940;2023-06-04T06:51:26;5.68;;;2.67;;
53207;SDS011;39093;52.788;6.940;2023-06-04T06:53:53;8.18;;;3.22;;
53207;SDS011;39093;52.788;6.940;2023-06-04T06:56:21;6.28;;;2.90;;
53207;SDS011;39093;52.788;6.940;2023-06-04T06:58:48;5.53;;;2.00;;
53207;SDS011;39093;52.788;6.940;2023-06-04T07:01:15;3.88;;;2.08;;
53207;SDS011;39093;52.788;6.940;2023-06-04T07:03:42;6.65;;;1.98;;
53207;SDS011;39093;52.788;6.940;2023-06-04T07:06:09;5.53;;;2.00;;
53207;SDS011;39093;52.788;6.940;2023-06-04T07:08:36;3.40;;;1.77;;
53207;SDS011;39093;52.788;6.940;2023-06-04T07:11:03;4.40;;;2.03;;
53207;SDS011;39093;52.788;6.940;2023-06-04T07:13:30;5.03;;;2.05;;
53207;SDS011;39093;52.788;6.940;2023-06-04T07:16:00;5.18;;;1.95;;
53207;SDS011;39093;52.788;6.940;2023-06-04T07:18:27;6.28;;;2.40;;
53207;SDS011;39093;52.788;6.940;2023-06-04T07:20:54;4.22;;;2.17;;
53207;SDS011;39093;52.788;6.940;2023-06-04T07:23:23;6.07;;;1.85;;
53207;SDS011;39093;52.788;6.940;2023-06-04T07:25:50;4.43;;;1.65;;
53207;SDS011;39093;52.788;6.940;2023-06-04T07:28:17;6.22;;;1.83;;
53207;SDS011;39093;52.788;6.940;2023-06-04T07:30:45;6.47;;;2.03;;
53207;SDS011;39093;52.788;6.940;2023-06-04T07:33:12;8.00;;;2.20;;
53207;SDS011;39093;52.788;6.940;2023-06-04T07:35:39;3.78;;;1.75;;
53207;SDS011;39093;52.788;6.940;2023-06-04T07:38:06;8.10;;;2.20;;
53207;SDS011;39093;52.788;6.940;2023-06-04T07:40:33;5.63;;;1.75;;
53207;SDS011;39093;52.788;6.940;2023-06-04T07:43:00;11.50;;;2.08;;
53207;SDS011;39093;52.788;6.940;2023-06-04T07:45:30;4.05;;;2.00;;
53207;SDS011;39093;52.788;6.940;2023-06-04T07:48:01;3.38;;;1.45;;
53207;SDS011;39093;52.788;6.940;2023-06-04T07:50:28;9.07;;;1.40;;
53207;SDS011;39093;52.788;6.940;2023-06-04T07:52:55;6.88;;;1.60;;
53207;SDS011;39093;52.788;6.940;2023-06-04T07:55:22;9.20;;;2.17;;
53207;SDS011;39093;52.788;6.940;2023-06-04T07:57:48;4.97;;;2.05;;
53207;SDS011;39093;52.788;6.940;2023-06-04T08:00:15;5.25;;;1.42;;
53207;SDS011;39093;52.788;6.940;2023-06-04T08:02:44;9.48;;;1.88;;
53207;SDS011;39093;52.788;6.940;2023-06-04T08:05:11;3.70;;;1.60;;
53207;SDS011;39093;52.788;6.940;2023-06-04T08:07:40;5.82;;;1.65;;
53207;SDS011;39093;52.788;6.940;2023-06-04T08:10:07;3.67;;;1.48;;
53207;SDS011;39093;52.788;6.940;2023-06-04T08:12:35;5.28;;;1.13;;
53207;SDS011;39093;52.788;6.940;2023-06-04T08:15:02;6.35;;;1.17;;
53207;SDS011;39093;52.788;6.940;2023-06-04T08:17:33;5.55;;;1.20;;
53207;SDS011;39093;52.788;6.940;2023-06-04T08:20:01;3.72;;;1.40;;
53207;SDS011;39093;52.788;6.940;2023-06-04T08:22:37;4.35;;;1.05;;
53207;SDS011;39093;52.788;6.940;2023-06-04T08:25:04;6.05;;;1.40;;
53207;SDS011;39093;52.788;6.940;2023-06-04T08:27:31;5.57;;;1.75;;
53207;SDS011;39093;52.788;6.940;2023-06-04T08:29:58;8.95;;;0.90;;
53207;SDS011;39093;52.788;6.940;2023-06-04T08:32:25;4.65;;;1.15;;
53207;SDS011;39093;52.788;6.940;2023-06-04T08:34:52;4.40;;;1.30;;
53207;SDS011;39093;52.788;6.940;2023-06-04T08:37:19;2.92;;;1.13;;
53207;SDS011;39093;52.788;6.940;2023-06-04T08:39:46;4.45;;;1.27;;
53207;SDS011;39093;52.788;6.940;2023-06-04T08:42:15;3.80;;;1.10;;
53207;SDS011;39093;52.788;6.940;2023-06-04T08:44:56;5.15;;;1.40;;
53207;SDS011;39093;52.788;6.940;2023-06-04T08:47:24;3.20;;;1.17;;
53207;SDS011;39093;52.788;6.940;2023-06-04T08:49:58;3.78;;;1.20;;
53207;SDS011;39093;52.788;6.940;2023-06-04T08:52:30;6.05;;;1.48;;
53207;SDS011;39093;52.788;6.940;2023-06-04T08:54:57;2.92;;;1.17;;
53207;SDS011;39093;52.788;6.940;2023-06-04T08:57:25;3.58;;;1.45;;
53207;SDS011;39093;52.788;6.940;2023-06-04T08:59:52;3.10;;;1.00;;
53207;SDS011;39093;52.788;6.940;2023-06-04T09:02:19;6.43;;;1.38;;
53207;SDS011;39093;52.788;6.940;2023-06-04T09:04:46;3.20;;;0.93;;
53207;SDS011;39093;52.788;6.940;2023-06-04T09:07:14;3.03;;;1.42;;
53207;SDS011;39093;52.788;6.940;2023-06-04T09:09:44;5.32;;;1.02;;
53207;SDS011;39093;52.788;6.940;2023-06-04T09:12:25;1.98;;;0.85;;
53207;SDS011;39093;52.788;6.940;2023-06-04T09:14:57;2.83;;;1.00;;
53207;SDS011;39093;52.788;6.940;2023-06-04T09:17:24;4.53;;;1.33;;
53207;SDS011;39093;52.788;6.940;2023-06-04T09:19:51;3.08;;;1.20;;
53207;SDS011;39093;52.788;6.940;2023-06-04T09:22:18;2.40;;;1.02;;
53207;SDS011;39093;52.788;6.940;2023-06-04T09:24:46;2.50;;;1.02;;
53207;SDS011;39093;52.788;6.940;2023-06-04T09:27:17;4.03;;;0.90;;
53207;SDS011;39093;52.788;6.940;2023-06-04T09:30:03;2.38;;;1.00;;
53207;SDS011;39093;52.788;6.940;2023-06-04T09:32:30;1.88;;;0.90;;
53207;SDS011;39093;52.788;6.940;2023-06-04T09:35:10;3.67;;;1.10;;
53207;SDS011;39093;52.788;6.940;2023-06-04T09:37:39;2.10;;;0.93;;
53207;SDS011;39093;52.788;6.940;2023-06-04T09:40:09;3.65;;;1.40;;
53207;SDS011;39093;52.788;6.940;2023-06-04T09:42:44;4.20;;;1.02;;
53207;SDS011;39093;52.788;6.940;2023-06-04T09:45:12;3.42;;;1.38;;
53207;SDS011;39093;52.788;6.940;2023-06-04T09:47:40;2.10;;;1.23;;
53207;SDS011;39093;52.788;6.940;2023-06-04T09:50:11;5.95;;;1.42;;
53207;SDS011;39093;52.788;6.940;2023-06-04T09:52:38;3.72;;;1.13;;
53207;SDS011;39093;52.788;6.940;2023-06-04T09:55:16;5.63;;;0.98;;
53207;SDS011;39093;52.788;6.940;2023-06-04T09:57:49;3.45;;;1.25;;
53207;SDS011;39093;52.788;6.940;2023-06-04T10:00:17;1.88;;;0.90;;
53207;SDS011;39093;52.788;6.940;2023-06-04T10:02:47;2.28;;;0.80;;
53207;SDS011;39093;52.788;6.940;2023-06-04T10:05:15;3.67;;;1.10;;
53207;SDS011;39093;52.788;6.940;2023-06-04T10:07:43;2.47;;;1.23;;
53207;SDS011;39093;52.788;6.940;2023-06-04T10:10:15;3.17;;;1.23;;
53207;SDS011;39093;52.788;6.940;2023-06-04T10:12:45;3.53;;;1.17;;
53207;SDS011;39093;52.788;6.940;2023-06-04T10:15:16;1.73;;;0.80;;
53207;SDS011;39093;52.788;6.940;2023-06-04T10:17:44;3.00;;;1.10;;
53207;SDS011;39093;52.788;6.940;2023-06-04T10:20:13;3.50;;;1.20;;
53207;SDS011;39093;52.788;6.940;2023-06-04T10:22:41;2.53;;;1.08;;
53207;SDS011;39093;52.788;6.940;2023-06-04T10:25:09;5.72;;;1.10;;
53207;SDS011;39093;52.788;6.940;2023-06-04T10:27:36;3.10;;;1.20;;
53207;SDS011;39093;52.788;6.940;2023-06-04T10:30:04;3.63;;;1.13;;
53207;SDS011;39093;52.788;6.940;2023-06-04T10:32:31;2.67;;;0.95;;
53207;SDS011;39093;52.788;6.940;2023-06-04T10:34:58;5.13;;;0.88;;
53207;SDS011;39093;52.788;6.940;2023-06-04T10:37:31;1.77;;;1.05;;
53207;SDS011;39093;52.788;6.940;2023-06-04T10:39:59;4.53;;;0.90;;
53207;SDS011;39093;52.788;6.940;2023-06-04T10:42:26;2.60;;;0.90;;
53207;SDS011;39093;52.788;6.940;2023-06-04T10:45:05;7.78;;;1.20;;
53207;SDS011;39093;52.788;6.940;2023-06-04T10:47:33;3.35;;;1.00;;
53207;SDS011;39093;52.788;6.940;2023-06-04T10:50:10;3.53;;;1.13;;
53207;SDS011;39093;52.788;6.940;2023-06-04T10:52:50;3.35;;;0.82;;
53207;SDS011;39093;52.788;6.940;2023-06-04T10:55:21;1.98;;;1.10;;
53207;SDS011;39093;52.788;6.940;2023-06-04T11:00:20;2.80;;;1.13;;
53207;SDS011;39093;52.788;6.940;2023-06-04T11:02:53;4.00;;;1.27;;
53207;SDS011;39093;52.788;6.940;2023-06-04T11:05:33;5.15;;;0.88;;
53207;SDS011;39093;52.788;6.940;2023-06-04T11:08:07;3.28;;;1.33;;
53207;SDS011;39093;52.788;6.940;2023-06-04T11:10:37;4.90;;;1.20;;
53207;SDS011;39093;52.788;6.940;2023-06-04T11:13:05;2.35;;;1.05;;
53207;SDS011;39093;52.788;6.940;2023-06-04T11:15:42;1.95;;;0.82;;
53207;SDS011;39093;52.788;6.940;2023-06-04T11:18:14;4.10;;;1.50;;
53207;SDS011;39093;52.788;6.940;2023-06-04T11:20:43;7.05;;;1.42;;
53207;SDS011;39093;52.788;6.940;2023-06-04T11:23:19;5.63;;;1.45;;
53207;SDS011;39093;52.788;6.940;2023-06-04T11:25:46;3.45;;;1.20;;
53207;SDS011;39093;52.788;6.940;2023-06-04T11:28:19;4.03;;;1.42;;
53207;SDS011;39093;52.788;6.940;2023-06-04T11:31:00;10.00;;;2.42;;
53207;SDS011;39093;52.788;6.940;2023-06-04T11:33:44;2.95;;;1.30;;
53207;SDS011;39093;52.788;6.940;2023-06-04T11:36:28;3.88;;;1.02;;
53207;SDS011;39093;52.788;6.940;2023-06-04T11:39:01;3.45;;;1.15;;
53207;SDS011;39093;52.788;6.940;2023-06-04T11:41:30;2.15;;;1.23;;
53207;SDS011;39093;52.788;6.940;2023-06-04T11:44:01;2.53;;;0.93;;
53207;SDS011;39093;52.788;6.940;2023-06-04T11:46:34;4.65;;;1.17;;
53207;SDS011;39093;52.788;6.940;2023-06-04T11:49:02;2.25;;;1.00;;
53207;SDS011;39093;52.788;6.940;2023-06-04T11:51:29;3.28;;;0.95;;
53207;SDS011;39093;52.788;6.940;2023-06-04T11:53:57;4.68;;;1.25;;
53207;SDS011;39093;52.788;6.940;2023-06-04T11:56:24;4.50;;;1.23;;
53207;SDS011;39093;52.788;6.940;2023-06-04T11:58:54;7.88;;;1.33;;
53207;SDS011;39093;52.788;6.940;2023-06-04T12:01:22;4.57;;;1.10;;
53207;SDS011;39093;52.788;6.940;2023-06-04T12:03:49;3.75;;;1.00;;
53207;SDS011;39093;52.788;6.940;2023-06-04T12:06:17;2.38;;;0.90;;
53207;SDS011;39093;52.788;6.940;2023-06-04T12:08:54;3.65;;;1.15;;
53207;SDS011;39093;52.788;6.940;2023-06-04T12:11:26;7.03;;;1.20;;
53207;SDS011;39093;52.788;6.940;2023-06-04T12:13:54;3.72;;;0.90;;
53207;SDS011;39093;52.788;6.940;2023-06-04T12:16:22;2.80;;;0.60;;
53207;SDS011;39093;52.788;6.940;2023-06-04T12:18:49;2.60;;;0.98;;
53207;SDS011;39093;52.788;6.940;2023-06-04T12:21:18;2.45;;;0.80;;
53207;SDS011;39093;52.788;6.940;2023-06-04T12:23:45;2.60;;;1.10;;
53207;SDS011;39093;52.788;6.940;2023-06-04T12:26:22;2.00;;;0.70;;
53207;SDS011;39093;52.788;6.940;2023-06-04T12:29:00;2.83;;;0.88;;
53207;SDS011;39093;52.788;6.940;2023-06-04T12:31:28;3.13;;;1.23;;
53207;SDS011;39093;52.788;6.940;2023-06-04T12:34:01;3.60;;;0.93;;
53207;SDS011;39093;52.788;6.940;2023-06-04T12:36:28;4.40;;;1.10;;
53207;SDS011;39093;52.788;6.940;2023-06-04T12:38:58;6.18;;;1.23;;
53207;SDS011;39093;52.788;6.940;2023-06-04T12:41:26;4.57;;;1.23;;
53207;SDS011;39093;52.788;6.940;2023-06-04T12:43:54;1.83;;;1.17;;
53207;SDS011;39093;52.788;6.940;2023-06-04T12:46:21;1.75;;;0.80;;
53207;SDS011;39093;52.788;6.940;2023-06-04T12:48:50;2.03;;;0.90;;
53207;SDS011;39093;52.788;6.940;2023-06-04T12:51:17;3.13;;;1.08;;
53207;SDS011;39093;52.788;6.940;2023-06-04T12:53:44;3.17;;;1.13;;
53207;SDS011;39093;52.788;6.940;2023-06-04T12:56:11;3.97;;;1.40;;
53207;SDS011;39093;52.788;6.940;2023-06-04T12:58:38;3.20;;;0.90;;
53207;SDS011;39093;52.788;6.940;2023-06-04T13:01:06;2.10;;;1.02;;
53207;SDS011;39093;52.788;6.940;2023-06-04T13:03:35;4.38;;;0.85;;
53207;SDS011;39093;52.788;6.940;2023-06-04T13:06:03;4.65;;;1.23;;
53207;SDS011;39093;52.788;6.940;2023-06-04T13:08:30;4.05;;;1.02;;
53207;SDS011;39093;52.788;6.940;2023-06-04T13:10:58;2.40;;;1.10;;
53207;SDS011;39093;52.788;6.940;2023-06-04T13:13:25;2.95;;;1.30;;
53207;SDS011;39093;52.788;6.940;2023-06-04T13:15:53;6.30;;;1.48;;
53207;SDS011;39093;52.788;6.940;2023-06-04T13:18:20;1.90;;;0.90;;
53207;SDS011;39093;52.788;6.940;2023-06-04T13:20:47;5.63;;;1.13;;
53207;SDS011;39093;52.788;6.940;2023-06-04T13:23:15;2.33;;;1.00;;
53207;SDS011;39093;52.788;6.940;2023-06-04T13:25:42;3.65;;;0.98;;
53207;SDS011;39093;52.788;6.940;2023-06-04T13:28:09;2.63;;;1.00;;
53207;SDS011;39093;52.788;6.940;2023-06-04T13:30:37;3.97;;;1.40;;
53207;SDS011;39093;52.788;6.940;2023-06-04T13:33:04;1.20;;;0.90;;
53207;SDS011;39093;52.788;6.940;2023-06-04T13:35:32;3.42;;;1.02;;
53207;SDS011;39093;52.788;6.940;2023-06-04T13:37:59;2.75;;;1.00;;
53207;SDS011;39093;52.788;6.940;2023-06-04T13:40:36;4.70;;;1.48;;
53207;SDS011;39093;52.788;6.940;2023-06-04T13:43:04;6.40;;;1.00;;
53207;SDS011;39093;52.788;6.940;2023-06-04T13:45:32;4.82;;;1.17;;
53207;SDS011;39093;52.788;6.940;2023-06-04T13:47:59;2.50;;;1.23;;
53207;SDS011;39093;52.788;6.940;2023-06-04T13:50:30;2.13;;;1.10;;
53207;SDS011;39093;52.788;6.940;2023-06-04T13:52:58;2.78;;;0.90;;
53207;SDS011;39093;52.788;6.940;2023-06-04T13:55:24;3.45;;;1.20;;
53207;SDS011;39093;52.788;6.940;2023-06-04T13:57:52;2.63;;;1.25;;
53207;SDS011;39093;52.788;6.940;2023-06-04T14:00:18;2.60;;;1.08;;
53207;SDS011;39093;52.788;6.940;2023-06-04T14:02:47;1.98;;;1.05;;
53207;SDS011;39093;52.788;6.940;2023-06-04T14:05:15;3.33;;;1.30;;
53207;SDS011;39093;52.788;6.940;2023-06-04T14:07:42;3.97;;;1.15;;
53207;SDS011;39093;52.788;6.940;2023-06-04T14:10:10;5.00;;;0.98;;
53207;SDS011;39093;52.788;6.940;2023-06-04T14:12:38;2.92;;;1.25;;
53207;SDS011;39093;52.788;6.940;2023-06-04T14:15:10;2.83;;;0.93;;
53207;SDS011;39093;52.788;6.940;2023-06-04T14:17:38;3.10;;;1.43;;
53207;SDS011;39093;52.788;6.940;2023-06-04T14:20:05;2.78;;;1.20;;
53207;SDS011;39093;52.788;6.940;2023-06-04T14:22:37;1.45;;;0.90;;
53207;SDS011;39093;52.788;6.940;2023-06-04T14:25:04;2.28;;;1.02;;
53207;SDS011;39093;52.788;6.940;2023-06-04T14:27:33;5.30;;;1.45;;
53207;SDS011;39093;52.788;6.940;2023-06-04T14:30:03;4.90;;;1.40;;
53207;SDS011;39093;52.788;6.940;2023-06-04T14:32:31;2.33;;;1.30;;
53207;SDS011;39093;52.788;6.940;2023-06-04T14:35:00;3.15;;;1.52;;
53207;SDS011;39093;52.788;6.940;2023-06-04T14:37:27;5.00;;;2.30;;
53207;SDS011;39093;52.788;6.940;2023-06-04T14:39:54;2.92;;;1.35;;
53207;SDS011;39093;52.788;6.940;2023-06-04T14:42:21;5.93;;;1.35;;
53207;SDS011;39093;52.788;6.940;2023-06-04T14:44:48;3.53;;;1.67;;
53207;SDS011;39093;52.788;6.940;2023-06-04T14:47:15;2.35;;;1.35;;
53207;SDS011;39093;52.788;6.940;2023-06-04T14:49:42;4.25;;;1.23;;
53207;SDS011;39093;52.788;6.940;2023-06-04T14:52:09;3.92;;;1.52;;
53207;SDS011;39093;52.788;6.940;2023-06-04T14:54:36;1.88;;;1.17;;
53207;SDS011;39093;52.788;6.940;2023-06-04T14:57:03;2.92;;;1.23;;
53207;SDS011;39093;52.788;6.940;2023-06-04T14:59:30;2.08;;;0.90;;
53207;SDS011;39093;52.788;6.940;2023-06-04T15:01:57;3.50;;;1.13;;
53207;SDS011;39093;52.788;6.940;2023-06-04T15:04:24;2.30;;;1.20;;